Gerald, Missouri
Current Conditions -  °F | °C
As of 5:35 AM on Tuesday 21 Oct 2014 (Local Time) from KFYG Reporting Station
Few Clouds Few Clouds  
Wind Chill: 41°   Ceiling: Unl
Heat Index: 41°   Visibility: 10mi
Dew Point: 41°   Wind: 3mph
Humidity: 100%   Direction: 310°NW
Pressure: 30.07"   Gusts: NA
Location:  38.4°N, 91.33°W
Report Text: KFYG 211035Z AUTO 31003KT 10SM FEW038 05/05 A3007 RMK AO2
Loading
Personal Weather Stations






























Interactive Weather Map
Tropical Storm Tracking
New forecast layout! Learn more

10-Day Weather Forecast

Advertisements
Track Severe Weather on mobile